James Reserve, California Weather observations

Data are for 10 minute period ending at time listed.
 Day   Time   Solar   Ave.   Ave.  Ave.  Vector  Max.   Baro.   Total    
  of    of     Rad.   Air    Rel.  Wind   Wind   Wind  Press.  Precip.   
Year   Day            Temp.  Hum.  Speed  Dir.   Gust                    
2014   (PST)  Kw/m2    F      %     mph   deg.    mph    mb.     in.     
-------------------------------------------------------------------------
 329   18:30   0.00   39.3    56    0.5     1     1.5   847.0    0.00 
 329   18:40   0.00   39.0    58    0.5    29     1.2   847.0    0.00 
 329   18:50   0.00   38.7    58    0.6    55     1.4   847.0    0.00 
 329   19:00   0.00   38.6    58    0.5    32     1.5   847.0    0.00 
 329   19:10   0.00   38.5    60    0.6    20     2.0   847.0    0.00 
 329   19:20   0.00   38.8    62    0.6    49     1.3   847.0    0.00 
 329   19:30   0.00   39.5    65    0.6    27     1.7   847.0    0.00 
 329   19:40   0.00   40.0    62    0.5     4     1.3   847.0    0.00 
 329   19:50   0.00   40.5    63    0.8    68     1.8   847.0    0.00 
 329   20:00   0.00   41.9    60    0.6    28     2.2   847.0    0.00 
 329   20:10   0.00   42.1    63    0.7    36     2.0   847.0    0.00 
 329   20:20   0.00   43.1    58    1.0   216     2.9   847.0    0.00 
 329   20:30   0.00   43.7    58    0.9    73     2.3   847.0    0.00 
 329   20:40   0.00   45.6    52    0.9   310     1.8   847.0    0.00 
 329   20:50   0.00   46.5    54    0.8    44     1.9   847.0    0.00 
 329   21:00   0.00   47.1    52    0.8    23     3.1   847.0    0.00 
 329   21:10   0.00   49.5    46    1.0    38     2.0   847.0    0.00 
 329   21:20   0.00   48.6    50    1.1    73     4.2   847.0    0.00 
 329   21:30   0.00   47.8    52    1.0    47     3.2   847.0    0.00 
 329   21:40   0.00   48.0    50    0.9    40     2.4   847.0    0.00 
 329   21:50   0.00   47.9    50    1.1    56     2.7   847.0    0.00 
 329   22:00   0.00   48.3    49    0.9    30     2.1   847.0    0.00 
 329   22:10   0.00   48.3    50    1.0    33     1.9   847.0    0.00 
 329   22:20   0.00   49.5    45    1.0    19     2.2   847.0    0.00 
 329   22:30   0.00   52.0    37    1.3    55     5.3   847.0    0.00 
 329   22:40   0.00   55.3    31    1.3    44     4.8   847.0    0.00 
 329   22:50   0.00   56.0    29    1.3    55     3.9   847.0    0.00 
 329   23:00   0.00   55.8    30    1.2    59     3.6   847.0    0.00 
 329   23:10   0.00   56.6    27    1.5    68     3.6   847.0    0.00 
 329   23:20   0.00   58.5    25    1.4    58     4.6   847.0    0.00 
 329   23:30   0.00   58.1    24    1.4    53     3.2   847.0    0.00 
 329   23:40   0.00   59.8    21    1.9    48     4.6   847.0    0.00 
 329   23:50   0.00   60.6    19    1.6    57     4.5   847.0    0.00 
 330    0:00   0.00   61.3    18    1.7    53     4.2   847.0    0.00 
 330    0:10   0.00   60.7    20    1.2    50     3.2   847.0    0.00 
 330    0:20   0.00   60.2    21    1.3    52     3.0   847.0    0.00 
 330    0:30   0.00   58.8    24    1.4    58     3.6   847.0    0.00 
 330    0:40   0.00   58.3    26    1.3    52     2.7   847.0    0.00 
 330    0:50   0.00   58.3    24    1.3    59     3.3   847.0    0.00 
 330    1:00   0.00   60.1    22    1.5    62     3.7   847.0    0.00 
 330    1:10   0.00   61.0    20    1.9    64     5.5   847.0    0.00 
 330    1:20   0.00   60.0    23    1.5    55     2.9   847.0    0.00 
 330    1:30   0.00   60.2    22    1.6    55     3.9   847.0    0.00 
 330    1:40   0.00   59.9    22    1.8    61     3.8   846.0    0.00 
 330    1:50   0.00   59.9    21    1.5    58     4.8   846.0    0.00 
 330    2:00   0.00   61.2    19    1.9    39     4.9   846.0    0.00 
 330    2:10   0.00   61.9    18    2.2    55     5.8   846.0    0.00 
 330    2:20   0.00   61.2    21    1.7    37     4.1   846.0    0.00 
 330    2:30   0.00   60.9    20    2.0    61     6.7   846.0    0.00 
 330    2:40   0.00   61.2    20    2.0    44     5.7   846.0    0.00 
 330    2:50   0.00   61.3    20    1.8    54     3.6   846.0    0.00 
 330    3:00   0.00   60.8    20    1.9    62     5.0   846.0    0.00 
 330    3:10   0.00   60.9    19    1.5    59     3.5   846.0    0.00 
 330    3:20   0.00   60.9    19    2.1    63     4.5   846.0    0.00 
 330    3:30   0.00   60.7    19    1.8    53     4.0   846.0    0.00 
 330    3:40   0.00   60.2    19    1.9    46     5.2   846.0    0.00 
 330    3:50   0.00   60.9    17    1.7    44     4.0   846.0    0.00 
 330    4:00   0.00   61.4    17    2.1    54     5.8   846.0    0.00 
 330    4:10   0.00   61.3    17    1.7    47     5.0   846.0    0.00 
 330    4:20   0.00   60.8    17    1.5    44     3.2   846.0    0.00 
 330    4:30   0.00   61.1    17    1.6    44     3.2   846.0    0.00 
 330    4:40   0.00   61.6    16    1.7    50     5.2   846.0    0.00 
 330    4:50   0.00   61.5    16    1.7    57     5.3   846.0    0.00 
 330    5:00   100.00  99999.0   99999  99999.0   99999   99999.0   99999.0   99999.00 
 330    5:10   0.00   61.0    16    1.7    28     3.5   99999.0    0.00 
 330    5:20   0.00   61.4    15    1.5    45     3.3   846.0    0.00 
 330    5:30   0.00   61.6    15    1.6    52     3.5   846.0    0.00 
 330    5:40   100.00  99999.0   99999  99999.0   99999   99999.0   99999.0   99999.00 
 330    5:50   0.00   61.8    14    1.2    31     4.0   846.0    0.00 
 330    6:00   0.00   61.2    14    1.2    38     3.6   846.0    0.00 
 330    6:10   0.00   61.6    14    1.3    44     3.6   846.0    0.00 
 330    6:20   0.00   61.1    14    1.3    23     4.3   846.0    0.00 
 330    6:30   0.00   59.8    17    0.8   282     2.4   846.0    0.00 
 330    6:40   0.00   59.1    18    0.6   209     1.6   846.0    0.00 
 330    6:50   0.00   58.5    18    0.5   213     1.6   846.0    0.00 
 330    7:00   0.00   56.5    24    1.0   218     2.1   846.0    0.00 
 330    7:10   0.01   54.4    27    1.2   234     3.0   846.0    0.00 
 330    7:20   0.01   55.7    24    1.0   225     4.6   846.0    0.00 
 330    7:30   0.01   53.3    33    0.7   353     1.5   846.0    0.00 
 330    7:40   0.01   54.4    28    0.8   231     3.1   846.0    0.00 
 330    7:50   0.02   57.2    22    1.0   202     2.7   846.0    0.00 
 330    8:00   0.02   58.0    21    1.2    55     3.5   847.0    0.00 
 330    8:10   0.02   59.6    20    0.8    64     2.3   847.0    0.00 
 330    8:20   0.02   57.8    25    0.8    53     2.6   847.0    0.00 
 330    8:30   0.02   54.7    31    0.5   104     1.5   847.0    0.00 
 330    8:40   0.03   56.7    27    0.8   142     2.2   847.0    0.00 
 330    8:50   0.03   55.1    32    0.4    59     1.1   847.0    0.00 
 330    9:00   0.03   55.4    32    0.7   133     2.0   847.0    0.00 
 330    9:10   0.03   56.2    35    0.6    54     3.1   847.0    0.00 
 330    9:20   0.03   58.7    28    1.1   214     3.4   847.0    0.00 
 330    9:30   0.04   60.5    24    1.2   193     3.1   847.0    0.00 
 330    9:40   0.04   61.8    24    0.9   200     2.1   847.0    0.00 
 330    9:50   0.04   62.4    20    1.5   211     3.6   847.0    0.00 
 330   10:00   0.04   64.7    19    1.2   224     2.8   99999.0    0.00 
 330   10:10   0.04   64.8    20    1.0   226     3.5   847.0    0.00 
 330   10:20   0.04   64.9    18    1.1   225     2.9   847.0    0.00 
 330   10:30   0.16   65.0    18    1.2    70     2.8   847.0    0.00 
 330   10:40   0.25   65.4    18    0.7   280     1.6   847.0    0.00 
 330   10:50   0.06   65.8    18    1.0   204     1.6   847.0    0.00 
 330   11:00   0.11   65.7    16    0.7   264     1.4   847.0    0.00 
 330   11:10   0.34   65.8    16    0.7   327     1.5   847.0    0.00 
 330   11:20   0.61   66.0    16    1.0   223     2.2   847.0    0.00 
 330   11:30   0.67   67.0    16    0.9   282     2.7   847.0    0.00 
 330   11:40   0.67   67.1    16    0.8   232     2.2   846.0    0.00 
 330   11:50   0.67   67.4    15    0.7   224     1.9   846.0    0.00 
 330   12:00   0.67   67.5    15    0.8   209     1.8   846.0    0.00 
 330   12:10   0.66   67.7    16    1.0   201     2.5   846.0    0.00 
 330   12:20   0.66   66.8    14    0.8   230     2.7   846.0    0.00 
 330   12:30   0.65   67.9    15    0.7   309     1.5   846.0    0.00 
 330   12:40   0.63   67.4    15    0.7   240     1.5   846.0    0.00 
 330   12:50   0.62   67.0    16    0.6   264     1.6   845.0    0.00 
 330   13:00   0.60   66.5    15    0.7   227     1.7   845.0    0.00 
 330   13:10   0.59   67.2    15    0.7   174     2.3   845.0    0.00 
 330   13:20   0.17   66.4    15    0.8   178     2.5   845.0    0.00 
 330   13:30   0.21   65.7    15    0.6   284     1.7   845.0    0.00 
 330   13:40   0.14   65.3    16    0.8   208     2.7   845.0    0.00 
 330   13:50   0.04   65.3    16    0.7   242     2.0   845.0    0.00 
 330   14:00   0.04   65.0    17    0.5   213     1.7   845.0    0.00 
 330   14:10   0.04   65.1    16    0.5   210     1.8   845.0    0.00 
 330   14:20   0.18   64.3    20    0.7   192     1.2   845.0    0.00 
 330   14:30   0.03   63.6    20    0.5   178     1.3   845.0    0.00 
 330   14:40   0.04   62.1    25    0.4   173     1.0   845.0    0.00 
 330   14:50   0.03   60.7    28    0.4    50     0.8   845.0    0.00 
 330   15:00   0.03   59.9    29    0.3    13     0.8   845.0    0.00 
 330   15:10   0.02   58.9    30    0.4    66     1.1   845.0    0.00 
 330   15:20   0.02   57.6    32    0.3    71     0.9   845.0    0.00 
 330   15:30   0.02   56.5    33    0.4    64     1.0   845.0    0.00 
 330   15:40   0.02   55.5    34    0.5    68     1.2   845.0    0.00 
 330   15:50   0.01   54.6    35    0.4    65     0.9   845.0    0.00 
 330   16:00   0.01   53.8    36    0.4    58     0.8   845.0    0.00 
 330   16:10   0.01   52.7    38    0.4    60     0.7   845.0    0.00 
 330   16:20   0.01   51.6    40    0.3    74     0.6   845.0    0.00 
 330   16:30   0.00   51.1    41    0.5    56     0.8   845.0    0.00 
 330   16:40   0.00   50.3    42    0.4    50     0.7   846.0    0.00 
 330   16:50   0.00   50.0    45    0.4    49     0.6   846.0    0.00 
 330   17:00   0.00   49.2    47    0.3    48     0.6   846.0    0.00 
 330   17:10   0.00   48.5    48    0.4    38     0.7   846.0    0.00 
 330   17:20   0.00   48.0    49    0.5    47     0.7   846.0    0.00 
 330   17:30   0.00   47.8    47    0.3    36     0.6   846.0    0.00 
 330   17:40   0.00   47.0    49    0.3    30     0.5   846.0    0.00 
 330   17:50   0.00   46.5    49    0.3    36     0.4   846.0    0.00 
 330   18:00   0.00   45.9    49    0.2    30     0.6   846.0    0.00 
 330   18:10   0.00   45.4    50    0.2    11     0.4   846.0    0.00 
 330   18:20   0.00   44.8    53    0.2    24     0.5   846.0    0.00 

Return to James Reserve graphs page.


Western Regional Climate Center,wrcc@dri.edu